Aviation Digital Data Service (ADDS)

Output produced by METARs form (2223 UTC 02 August 2021)
found at http://www.aviationweather.gov/metar/data/
 
METAR text: EDDL 022220Z 12003KT CAVOK 12/11 Q1015 NOSIG
Conditions at: EDDL (DUESSELDORF , DE) observed 2220 UTC 02 August 2021
Temperature: 12.0°C (54°F)
Dewpoint: 11.0°C (52°F) [RH = 94%]
Pressure (altimeter): 29.97 inches Hg (1015.0 mb)
Winds: from the ESE (120 degrees) at 3 MPH (3 knots; 1.5 m/s)
Visibility: 6 or more miles (10+ km)
Ceiling: ceiling and visibility are OK
Clouds: unknown
Weather: no significant weather observed at this time

METAR text: EDDL 022150Z VRB02KT CAVOK 12/12 Q1015 NOSIG
Conditions at: EDDL (DUESSELDORF , DE) observed 2150 UTC 02 August 2021
Temperature: 12.0°C (54°F)
Dewpoint: 12.0°C (54°F) [RH = 100%]
Pressure (altimeter): 29.97 inches Hg (1015.0 mb)
Winds: variable direction winds at 2 MPH (2 knots; 1.0 m/s)
Visibility: 6 or more miles (10+ km)
Ceiling: ceiling and visibility are OK
Clouds: unknown
Weather: no significant weather observed at this time

METAR text: EDDL 022120Z 10003KT 070V150 CAVOK 12/12 Q1015 NOSIG
Conditions at: EDDL (DUESSELDORF , DE) observed 2120 UTC 02 August 2021
Temperature: 12.0°C (54°F)
Dewpoint: 12.0°C (54°F) [RH = 100%]
Pressure (altimeter): 29.97 inches Hg (1015.0 mb)
Winds: from the E (100 degrees) at 3 MPH (3 knots; 1.5 m/s)
Visibility: 6 or more miles (10+ km)
Ceiling: ceiling and visibility are OK
Clouds: unknown
Weather: no significant weather observed at this time

METAR text: EDDL 022050Z VRB01KT CAVOK 13/12 Q1015 NOSIG
Conditions at: EDDL (DUESSELDORF , DE) observed 2050 UTC 02 August 2021
Temperature: 13.0°C (55°F)
Dewpoint: 12.0°C (54°F) [RH = 94%]
Pressure (altimeter): 29.97 inches Hg (1015.0 mb)
Winds: variable direction winds at 1 MPH (1 knots; 0.5 m/s)
Visibility: 6 or more miles (10+ km)
Ceiling: ceiling and visibility are OK
Clouds: unknown
Weather: no significant weather observed at this time

METAR text: EDDL 022020Z VRB01KT CAVOK 13/12 Q1015 NOSIG
Conditions at: EDDL (DUESSELDORF , DE) observed 2020 UTC 02 August 2021
Temperature: 13.0°C (55°F)
Dewpoint: 12.0°C (54°F) [RH = 94%]
Pressure (altimeter): 29.97 inches Hg (1015.0 mb)
Winds: variable direction winds at 1 MPH (1 knots; 0.5 m/s)
Visibility: 6 or more miles (10+ km)
Ceiling: ceiling and visibility are OK
Clouds: unknown
Weather: no significant weather observed at this time

METAR text: EDDL 021950Z 22004KT CAVOK 15/13 Q1015 NOSIG
Conditions at: EDDL (DUESSELDORF , DE) observed 1950 UTC 02 August 2021
Temperature: 15.0°C (59°F)
Dewpoint: 13.0°C (55°F) [RH = 88%]
Pressure (altimeter): 29.97 inches Hg (1015.0 mb)
Winds: from the SW (220 degrees) at 5 MPH (4 knots; 2.1 m/s)
Visibility: 6 or more miles (10+ km)
Ceiling: ceiling and visibility are OK
Clouds: unknown
Weather: no significant weather observed at this time

METAR text: EDDL 021920Z 25003KT CAVOK 16/13 Q1015 NOSIG
Conditions at: EDDL (DUESSELDORF , DE) observed 1920 UTC 02 August 2021
Temperature: 16.0°C (61°F)
Dewpoint: 13.0°C (55°F) [RH = 82%]
Pressure (altimeter): 29.97 inches Hg (1015.0 mb)
Winds: from the WSW (250 degrees) at 3 MPH (3 knots; 1.5 m/s)
Visibility: 6 or more miles (10+ km)
Ceiling: ceiling and visibility are OK
Clouds: unknown
Weather: no significant weather observed at this time

METAR text: EDDL 021850Z 24002KT CAVOK 16/13 Q1014 NOSIG
Conditions at: EDDL (DUESSELDORF , DE) observed 1850 UTC 02 August 2021
Temperature: 16.0°C (61°F)
Dewpoint: 13.0°C (55°F) [RH = 82%]
Pressure (altimeter): 29.94 inches Hg (1014.0 mb)
Winds: from the WSW (240 degrees) at 2 MPH (2 knots; 1.0 m/s)
Visibility: 6 or more miles (10+ km)
Ceiling: ceiling and visibility are OK
Clouds: unknown
Weather: no significant weather observed at this time

METAR text: EDDL 021820Z 22003KT 9999 FEW020 16/13 Q1014 NOSIG
Conditions at: EDDL (DUESSELDORF , DE) observed 1820 UTC 02 August 2021
Temperature: 16.0°C (61°F)
Dewpoint: 13.0°C (55°F) [RH = 82%]
Pressure (altimeter): 29.94 inches Hg (1014.0 mb)
Winds: from the SW (220 degrees) at 3 MPH (3 knots; 1.5 m/s)
Visibility: 6 or more miles (10+ km)
Ceiling: at least 12,000 feet AGL
Clouds: few clouds at 2000 feet AGL
Weather: no significant weather observed at this time

METAR text: EDDL 021750Z 23002KT 9999 FEW020 16/13 Q1014 NOSIG
Conditions at: EDDL (DUESSELDORF , DE) observed 1750 UTC 02 August 2021
Temperature: 16.0°C (61°F)
Dewpoint: 13.0°C (55°F) [RH = 82%]
Pressure (altimeter): 29.94 inches Hg (1014.0 mb)
Winds: from the SW (230 degrees) at 2 MPH (2 knots; 1.0 m/s)
Visibility: 6 or more miles (10+ km)
Ceiling: at least 12,000 feet AGL
Clouds: few clouds at 2000 feet AGL
Weather: no significant weather observed at this time

METAR text: EDDL 021720Z VRB01KT 9999 FEW020 BKN045 16/13 Q1014 NOSIG
Conditions at: EDDL (DUESSELDORF , DE) observed 1720 UTC 02 August 2021
Temperature: 16.0°C (61°F)
Dewpoint: 13.0°C (55°F) [RH = 82%]
Pressure (altimeter): 29.94 inches Hg (1014.0 mb)
Winds: variable direction winds at 1 MPH (1 knots; 0.5 m/s)
Visibility: 6 or more miles (10+ km)
Ceiling: 4500 feet AGL
Clouds: few clouds at 2000 feet AGL
broken clouds at 4500 feet AGL
Weather: no significant weather observed at this time

METAR text: EDDL 021650Z 07003KT 010V090 9999 FEW020 BKN045 15/13 Q1014 NOSIG
Conditions at: EDDL (DUESSELDORF , DE) observed 1650 UTC 02 August 2021
Temperature: 15.0°C (59°F)
Dewpoint: 13.0°C (55°F) [RH = 88%]
Pressure (altimeter): 29.94 inches Hg (1014.0 mb)
Winds: from the ENE (70 degrees) at 3 MPH (3 knots; 1.5 m/s)
Visibility: 6 or more miles (10+ km)
Ceiling: 4500 feet AGL
Clouds: few clouds at 2000 feet AGL
broken clouds at 4500 feet AGL
Weather: no significant weather observed at this time

METAR text: EDDL 021620Z VRB02KT 9999 -RA FEW018 SCT028 BKN040 15/13 Q1014 NOSIG
Conditions at: EDDL (DUESSELDORF , DE) observed 1620 UTC 02 August 2021
Temperature: 15.0°C (59°F)
Dewpoint: 13.0°C (55°F) [RH = 88%]
Pressure (altimeter): 29.94 inches Hg (1014.0 mb)
Winds: variable direction winds at 2 MPH (2 knots; 1.0 m/s)
Visibility: 6 or more miles (10+ km)
Ceiling: 4000 feet AGL
Clouds: few clouds at 1800 feet AGL
scattered clouds at 2800 feet AGL
broken clouds at 4000 feet AGL
Weather: -RA  (light rain)

METAR text: EDDL 021550Z 30007KT 9999 -RA FEW018 BKN028 BKN036 15/13 Q1015 NOSIG
Conditions at: EDDL (DUESSELDORF , DE) observed 1550 UTC 02 August 2021
Temperature: 15.0°C (59°F)
Dewpoint: 13.0°C (55°F) [RH = 88%]
Pressure (altimeter): 29.97 inches Hg (1015.0 mb)
Winds: from the WNW (300 degrees) at 8 MPH (7 knots; 3.6 m/s)
Visibility: 6 or more miles (10+ km)
Ceiling: 2800 feet AGL
Clouds: few clouds at 1800 feet AGL
broken clouds at 2800 feet AGL
broken clouds at 3600 feet AGL
Weather: -RA  (light rain)

METAR text: EDDL 021520Z 34011KT 9999 -RA FEW026 BKN032 17/12 Q1014 NOSIG
Conditions at: EDDL (DUESSELDORF , DE) observed 1520 UTC 02 August 2021
Temperature: 17.0°C (63°F)
Dewpoint: 12.0°C (54°F) [RH = 72%]
Pressure (altimeter): 29.94 inches Hg (1014.0 mb)
Winds: from the NNW (340 degrees) at 13 MPH (11 knots; 5.7 m/s)
Visibility: 6 or more miles (10+ km)
Ceiling: 3200 feet AGL
Clouds: few clouds at 2600 feet AGL
broken clouds at 3200 feet AGL
Weather: -RA  (light rain)

METAR text: EDDL 021450Z 24004KT 200V280 9999 FEW028 19/12 Q1014 NOSIG
Conditions at: EDDL (DUESSELDORF , DE) observed 1450 UTC 02 August 2021
Temperature: 19.0°C (66°F)
Dewpoint: 12.0°C (54°F) [RH = 64%]
Pressure (altimeter): 29.94 inches Hg (1014.0 mb)
Winds: from the WSW (240 degrees) at 5 MPH (4 knots; 2.1 m/s)
Visibility: 6 or more miles (10+ km)
Ceiling: at least 12,000 feet AGL
Clouds: few clouds at 2800 feet AGL
Weather: no significant weather observed at this time

METAR text: EDDL 021420Z 24006KT 9999 FEW028 19/11 Q1014 NOSIG
Conditions at: EDDL (DUESSELDORF , DE) observed 1420 UTC 02 August 2021
Temperature: 19.0°C (66°F)
Dewpoint: 11.0°C (52°F) [RH = 60%]
Pressure (altimeter): 29.94 inches Hg (1014.0 mb)
Winds: from the WSW (240 degrees) at 7 MPH (6 knots; 3.1 m/s)
Visibility: 6 or more miles (10+ km)
Ceiling: at least 12,000 feet AGL
Clouds: few clouds at 2800 feet AGL
Weather: no significant weather observed at this time

METAR text: EDDL 021350Z 26005KT 210V320 9999 FEW028 19/12 Q1014 NOSIG
Conditions at: EDDL (DUESSELDORF , DE) observed 1350 UTC 02 August 2021
Temperature: 19.0°C (66°F)
Dewpoint: 12.0°C (54°F) [RH = 64%]
Pressure (altimeter): 29.94 inches Hg (1014.0 mb)
Winds: from the W (260 degrees) at 6 MPH (5 knots; 2.6 m/s)
Visibility: 6 or more miles (10+ km)
Ceiling: at least 12,000 feet AGL
Clouds: few clouds at 2800 feet AGL
Weather: no significant weather observed at this time

METAR text: EDDL 021320Z 25004KT 180V310 9999 FEW028 19/11 Q1014 NOSIG
Conditions at: EDDL (DUESSELDORF , DE) observed 1320 UTC 02 August 2021
Temperature: 19.0°C (66°F)
Dewpoint: 11.0°C (52°F) [RH = 60%]
Pressure (altimeter): 29.94 inches Hg (1014.0 mb)
Winds: from the WSW (250 degrees) at 5 MPH (4 knots; 2.1 m/s)
Visibility: 6 or more miles (10+ km)
Ceiling: at least 12,000 feet AGL
Clouds: few clouds at 2800 feet AGL
Weather: no significant weather observed at this time

METAR text: EDDL 021250Z 24004KT 180V280 9999 FEW028 19/10 Q1014 NOSIG
Conditions at: EDDL (DUESSELDORF , DE) observed 1250 UTC 02 August 2021
Temperature: 19.0°C (66°F)
Dewpoint: 10.0°C (50°F) [RH = 56%]
Pressure (altimeter): 29.94 inches Hg (1014.0 mb)
Winds: from the WSW (240 degrees) at 5 MPH (4 knots; 2.1 m/s)
Visibility: 6 or more miles (10+ km)
Ceiling: at least 12,000 feet AGL
Clouds: few clouds at 2800 feet AGL
Weather: no significant weather observed at this time

METAR text: EDDL 021220Z 25004KT 220V290 9999 -RA FEW025 18/11 Q1014 NOSIG
Conditions at: EDDL (DUESSELDORF , DE) observed 1220 UTC 02 August 2021
Temperature: 18.0°C (64°F)
Dewpoint: 11.0°C (52°F) [RH = 64%]
Pressure (altimeter): 29.94 inches Hg (1014.0 mb)
Winds: from the WSW (250 degrees) at 5 MPH (4 knots; 2.1 m/s)
Visibility: 6 or more miles (10+ km)
Ceiling: at least 12,000 feet AGL
Clouds: few clouds at 2500 feet AGL
Weather: -RA  (light rain)

METAR text: EDDL 021150Z 23005KT 180V280 9999 -RA FEW025 18/10 Q1014 NOSIG
Conditions at: EDDL (DUESSELDORF , DE) observed 1150 UTC 02 August 2021
Temperature: 18.0°C (64°F)
Dewpoint: 10.0°C (50°F) [RH = 59%]
Pressure (altimeter): 29.94 inches Hg (1014.0 mb)
Winds: from the SW (230 degrees) at 6 MPH (5 knots; 2.6 m/s)
Visibility: 6 or more miles (10+ km)
Ceiling: at least 12,000 feet AGL
Clouds: few clouds at 2500 feet AGL
Weather: -RA  (light rain)

METAR text: EDDL 021120Z VRB03KT 9999 FEW025 17/10 Q1014 NOSIG
Conditions at: EDDL (DUESSELDORF , DE) observed 1120 UTC 02 August 2021
Temperature: 17.0°C (63°F)
Dewpoint: 10.0°C (50°F) [RH = 63%]
Pressure (altimeter): 29.94 inches Hg (1014.0 mb)
Winds: variable direction winds at 3 MPH (3 knots; 1.5 m/s)
Visibility: 6 or more miles (10+ km)
Ceiling: at least 12,000 feet AGL
Clouds: few clouds at 2500 feet AGL
Weather: no significant weather observed at this time

METAR text: EDDL 021050Z 23004KT 160V260 9999 FEW025 17/10 Q1014 NOSIG
Conditions at: EDDL (DUESSELDORF , DE) observed 1050 UTC 02 August 2021
Temperature: 17.0°C (63°F)
Dewpoint: 10.0°C (50°F) [RH = 63%]
Pressure (altimeter): 29.94 inches Hg (1014.0 mb)
Winds: from the SW (230 degrees) at 5 MPH (4 knots; 2.1 m/s)
Visibility: 6 or more miles (10+ km)
Ceiling: at least 12,000 feet AGL
Clouds: few clouds at 2500 feet AGL
Weather: no significant weather observed at this time

METAR text: EDDL 021020Z VRB03KT 9999 FEW025 BKN049 17/11 Q1014 NOSIG
Conditions at: EDDL (DUESSELDORF , DE) observed 1020 UTC 02 August 2021
Temperature: 17.0°C (63°F)
Dewpoint: 11.0°C (52°F) [RH = 68%]
Pressure (altimeter): 29.94 inches Hg (1014.0 mb)
Winds: variable direction winds at 3 MPH (3 knots; 1.5 m/s)
Visibility: 6 or more miles (10+ km)
Ceiling: 4900 feet AGL
Clouds: few clouds at 2500 feet AGL
broken clouds at 4900 feet AGL
Weather: no significant weather observed at this time

METAR text: EDDL 020950Z 28003KT 230V330 9999 FEW016 SCT043 17/10 Q1014 NOSIG
Conditions at: EDDL (DUESSELDORF , DE) observed 0950 UTC 02 August 2021
Temperature: 17.0°C (63°F)
Dewpoint: 10.0°C (50°F) [RH = 63%]
Pressure (altimeter): 29.94 inches Hg (1014.0 mb)
Winds: from the W (280 degrees) at 3 MPH (3 knots; 1.5 m/s)
Visibility: 6 or more miles (10+ km)
Ceiling: at least 12,000 feet AGL
Clouds: few clouds at 1600 feet AGL
scattered clouds at 4300 feet AGL
Weather: no significant weather observed at this time

METAR text: EDDL 020920Z VRB02KT 9999 -SHRA FEW016TCU SCT043 16/11 Q1014 NOSIG
Conditions at: EDDL (DUESSELDORF , DE) observed 0920 UTC 02 August 2021
Temperature: 16.0°C (61°F)
Dewpoint: 11.0°C (52°F) [RH = 72%]
Pressure (altimeter): 29.94 inches Hg (1014.0 mb)
Winds: variable direction winds at 2 MPH (2 knots; 1.0 m/s)
Visibility: 6 or more miles (10+ km)
Ceiling: at least 12,000 feet AGL
Clouds: few clouds at 1600 feet AGL
scattered clouds at 4300 feet AGL
Weather: -SHRA  (light rain showers)

METAR text: EDDL 020850Z 32005KT 9999 -SHRA FEW016TCU BKN043 16/12 Q1014 NOSIG
Conditions at: EDDL (DUESSELDORF , DE) observed 0850 UTC 02 August 2021
Temperature: 16.0°C (61°F)
Dewpoint: 12.0°C (54°F) [RH = 77%]
Pressure (altimeter): 29.94 inches Hg (1014.0 mb)
Winds: from the NW (320 degrees) at 6 MPH (5 knots; 2.6 m/s)
Visibility: 6 or more miles (10+ km)
Ceiling: 4300 feet AGL
Clouds: few clouds at 1600 feet AGL
broken clouds at 4300 feet AGL
Weather: -SHRA  (light rain showers)

METAR text: EDDL 020820Z 31005KT 270V340 9999 SCT016 BKN045 16/12 Q1014 NOSIG
Conditions at: EDDL (DUESSELDORF , DE) observed 0820 UTC 02 August 2021
Temperature: 16.0°C (61°F)
Dewpoint: 12.0°C (54°F) [RH = 77%]
Pressure (altimeter): 29.94 inches Hg (1014.0 mb)
Winds: from the NW (310 degrees) at 6 MPH (5 knots; 2.6 m/s)
Visibility: 6 or more miles (10+ km)
Ceiling: 4500 feet AGL
Clouds: scattered clouds at 1600 feet AGL
broken clouds at 4500 feet AGL
Weather: no significant weather observed at this time

METAR text: EDDL 020750Z 32003KT 260V010 9999 FEW016 BKN045 16/12 Q1014 NOSIG
Conditions at: EDDL (DUESSELDORF , DE) observed 0750 UTC 02 August 2021
Temperature: 16.0°C (61°F)
Dewpoint: 12.0°C (54°F) [RH = 77%]
Pressure (altimeter): 29.94 inches Hg (1014.0 mb)
Winds: from the NW (320 degrees) at 3 MPH (3 knots; 1.5 m/s)
Visibility: 6 or more miles (10+ km)
Ceiling: 4500 feet AGL
Clouds: few clouds at 1600 feet AGL
broken clouds at 4500 feet AGL
Weather: no significant weather observed at this time

METAR text: EDDL 020720Z VRB01KT 9999 FEW012 BKN044 16/12 Q1014 NOSIG
Conditions at: EDDL (DUESSELDORF , DE) observed 0720 UTC 02 August 2021
Temperature: 16.0°C (61°F)
Dewpoint: 12.0°C (54°F) [RH = 77%]
Pressure (altimeter): 29.94 inches Hg (1014.0 mb)
Winds: variable direction winds at 1 MPH (1 knots; 0.5 m/s)
Visibility: 6 or more miles (10+ km)
Ceiling: 4400 feet AGL
Clouds: few clouds at 1200 feet AGL
broken clouds at 4400 feet AGL
Weather: no significant weather observed at this time

METAR text: EDDL 020650Z VRB02KT 9999 FEW012 BKN044 15/12 Q1014 NOSIG
Conditions at: EDDL (DUESSELDORF , DE) observed 0650 UTC 02 August 2021
Temperature: 15.0°C (59°F)
Dewpoint: 12.0°C (54°F) [RH = 82%]
Pressure (altimeter): 29.94 inches Hg (1014.0 mb)
Winds: variable direction winds at 2 MPH (2 knots; 1.0 m/s)
Visibility: 6 or more miles (10+ km)
Ceiling: 4400 feet AGL
Clouds: few clouds at 1200 feet AGL
broken clouds at 4400 feet AGL
Weather: no significant weather observed at this time

METAR text: EDDL 020620Z VRB02KT 9999 FEW010 BKN043 15/12 Q1014 NOSIG
Conditions at: EDDL (DUESSELDORF , DE) observed 0620 UTC 02 August 2021
Temperature: 15.0°C (59°F)
Dewpoint: 12.0°C (54°F) [RH = 82%]
Pressure (altimeter): 29.94 inches Hg (1014.0 mb)
Winds: variable direction winds at 2 MPH (2 knots; 1.0 m/s)
Visibility: 6 or more miles (10+ km)
Ceiling: 4300 feet AGL
Clouds: few clouds at 1000 feet AGL
broken clouds at 4300 feet AGL
Weather: no significant weather observed at this time

METAR text: EDDL 020550Z 29001KT 9999 FEW010 BKN043 15/12 Q1013 NOSIG
Conditions at: EDDL (DUESSELDORF , DE) observed 0550 UTC 02 August 2021
Temperature: 15.0°C (59°F)
Dewpoint: 12.0°C (54°F) [RH = 82%]
Pressure (altimeter): 29.91 inches Hg (1013.0 mb)
Winds: from the WNW (290 degrees) at 1 MPH (1 knots; 0.5 m/s)
Visibility: 6 or more miles (10+ km)
Ceiling: 4300 feet AGL
Clouds: few clouds at 1000 feet AGL
broken clouds at 4300 feet AGL
Weather: no significant weather observed at this time

METAR text: EDDL 020520Z VRB01KT 9999 FEW010 BKN045 15/13 Q1013 NOSIG
Conditions at: EDDL (DUESSELDORF , DE) observed 0520 UTC 02 August 2021
Temperature: 15.0°C (59°F)
Dewpoint: 13.0°C (55°F) [RH = 88%]
Pressure (altimeter): 29.91 inches Hg (1013.0 mb)
Winds: variable direction winds at 1 MPH (1 knots; 0.5 m/s)
Visibility: 6 or more miles (10+ km)
Ceiling: 4500 feet AGL
Clouds: few clouds at 1000 feet AGL
broken clouds at 4500 feet AGL
Weather: no significant weather observed at this time

METAR text: EDDL 020450Z VRB01KT 9999 FEW045 14/13 Q1013 NOSIG
Conditions at: EDDL (DUESSELDORF , DE) observed 0450 UTC 02 August 2021
Temperature: 14.0°C (57°F)
Dewpoint: 13.0°C (55°F) [RH = 94%]
Pressure (altimeter): 29.91 inches Hg (1013.0 mb)
Winds: variable direction winds at 1 MPH (1 knots; 0.5 m/s)
Visibility: 6 or more miles (10+ km)
Ceiling: at least 12,000 feet AGL
Clouds: few clouds at 4500 feet AGL
Weather: no significant weather observed at this time

METAR text: EDDL 020420Z 32002KT 9999 FEW045 14/13 Q1013 NOSIG
Conditions at: EDDL (DUESSELDORF , DE) observed 0420 UTC 02 August 2021
Temperature: 14.0°C (57°F)
Dewpoint: 13.0°C (55°F) [RH = 94%]
Pressure (altimeter): 29.91 inches Hg (1013.0 mb)
Winds: from the NW (320 degrees) at 2 MPH (2 knots; 1.0 m/s)
Visibility: 6 or more miles (10+ km)
Ceiling: at least 12,000 feet AGL
Clouds: few clouds at 4500 feet AGL
Weather: no significant weather observed at this time

METAR text: EDDL 020350Z VRB01KT 9999 FEW040 14/13 Q1013 NOSIG
Conditions at: EDDL (DUESSELDORF , DE) observed 0350 UTC 02 August 2021
Temperature: 14.0°C (57°F)
Dewpoint: 13.0°C (55°F) [RH = 94%]
Pressure (altimeter): 29.91 inches Hg (1013.0 mb)
Winds: variable direction winds at 1 MPH (1 knots; 0.5 m/s)
Visibility: 6 or more miles (10+ km)
Ceiling: at least 12,000 feet AGL
Clouds: few clouds at 4000 feet AGL
Weather: no significant weather observed at this time

METAR text: EDDL 020320Z 36004KT CAVOK 14/13 Q1013 NOSIG
Conditions at: EDDL (DUESSELDORF , DE) observed 0320 UTC 02 August 2021
Temperature: 14.0°C (57°F)
Dewpoint: 13.0°C (55°F) [RH = 94%]
Pressure (altimeter): 29.91 inches Hg (1013.0 mb)
Winds: from the N (360 degrees) at 5 MPH (4 knots; 2.1 m/s)
Visibility: 6 or more miles (10+ km)
Ceiling: ceiling and visibility are OK
Clouds: unknown
Weather: no significant weather observed at this time

METAR text: EDDL 020250Z VRB02KT 9999 BKN045 14/13 Q1013 NOSIG
Conditions at: EDDL (DUESSELDORF , DE) observed 0250 UTC 02 August 2021
Temperature: 14.0°C (57°F)
Dewpoint: 13.0°C (55°F) [RH = 94%]
Pressure (altimeter): 29.91 inches Hg (1013.0 mb)
Winds: variable direction winds at 2 MPH (2 knots; 1.0 m/s)
Visibility: 6 or more miles (10+ km)
Ceiling: 4500 feet AGL
Clouds: broken clouds at 4500 feet AGL
Weather: no significant weather observed at this time

METAR text: EDDL 020220Z 34003KT 300V010 9999 FEW011 BKN025 14/13 Q1013 NOSIG
Conditions at: EDDL (DUESSELDORF , DE) observed 0220 UTC 02 August 2021
Temperature: 14.0°C (57°F)
Dewpoint: 13.0°C (55°F) [RH = 94%]
Pressure (altimeter): 29.91 inches Hg (1013.0 mb)
Winds: from the NNW (340 degrees) at 3 MPH (3 knots; 1.5 m/s)
Visibility: 6 or more miles (10+ km)
Ceiling: 2500 feet AGL
Clouds: few clouds at 1100 feet AGL
broken clouds at 2500 feet AGL
Weather: no significant weather observed at this time

METAR text: EDDL 020150Z 34004KT 9999 FEW011 BKN030 15/13 Q1012 NOSIG
Conditions at: EDDL (DUESSELDORF , DE) observed 0150 UTC 02 August 2021
Temperature: 15.0°C (59°F)
Dewpoint: 13.0°C (55°F) [RH = 88%]
Pressure (altimeter): 29.88 inches Hg (1012.0 mb)
Winds: from the NNW (340 degrees) at 5 MPH (4 knots; 2.1 m/s)
Visibility: 6 or more miles (10+ km)
Ceiling: 3000 feet AGL
Clouds: few clouds at 1100 feet AGL
broken clouds at 3000 feet AGL
Weather: no significant weather observed at this time

METAR text: EDDL 020120Z 31005KT 270V340 9999 SCT032 15/13 Q1012 NOSIG
Conditions at: EDDL (DUESSELDORF , DE) observed 0120 UTC 02 August 2021
Temperature: 15.0°C (59°F)
Dewpoint: 13.0°C (55°F) [RH = 88%]
Pressure (altimeter): 29.88 inches Hg (1012.0 mb)
Winds: from the NW (310 degrees) at 6 MPH (5 knots; 2.6 m/s)
Visibility: 6 or more miles (10+ km)
Ceiling: at least 12,000 feet AGL
Clouds: scattered clouds at 3200 feet AGL
Weather: no significant weather observed at this time

METAR text: EDDL 020050Z 28004KT 250V330 9999 SCT014 BKN035 15/14 Q1012 NOSIG
Conditions at: EDDL (DUESSELDORF , DE) observed 0050 UTC 02 August 2021
Temperature: 15.0°C (59°F)
Dewpoint: 14.0°C (57°F) [RH = 94%]
Pressure (altimeter): 29.88 inches Hg (1012.0 mb)
Winds: from the W (280 degrees) at 5 MPH (4 knots; 2.1 m/s)
Visibility: 6 or more miles (10+ km)
Ceiling: 3500 feet AGL
Clouds: scattered clouds at 1400 feet AGL
broken clouds at 3500 feet AGL
Weather: no significant weather observed at this time

METAR text: EDDL 020020Z 25003KT 220V280 9999 SCT012 BKN030 16/15 Q1012 NOSIG
Conditions at: EDDL (DUESSELDORF , DE) observed 0020 UTC 02 August 2021
Temperature: 16.0°C (61°F)
Dewpoint: 15.0°C (59°F) [RH = 94%]
Pressure (altimeter): 29.88 inches Hg (1012.0 mb)
Winds: from the WSW (250 degrees) at 3 MPH (3 knots; 1.5 m/s)
Visibility: 6 or more miles (10+ km)
Ceiling: 3000 feet AGL
Clouds: scattered clouds at 1200 feet AGL
broken clouds at 3000 feet AGL
Weather: no significant weather observed at this time

METAR text: EDDL 012350Z VRB01KT 9999 SCT022 BKN040 15/15 Q1012 NOSIG
Conditions at: EDDL (DUESSELDORF , DE) observed 2350 UTC 01 August 2021
Temperature: 15.0°C (59°F)
Dewpoint: 15.0°C (59°F) [RH = 100%]
Pressure (altimeter): 29.88 inches Hg (1012.0 mb)
Winds: variable direction winds at 1 MPH (1 knots; 0.5 m/s)
Visibility: 6 or more miles (10+ km)
Ceiling: 4000 feet AGL
Clouds: scattered clouds at 2200 feet AGL
broken clouds at 4000 feet AGL
Weather: no significant weather observed at this time

METAR text: EDDL 012320Z VRB01KT 9999 FEW020 BKN037 15/15 Q1012 NOSIG
Conditions at: EDDL (DUESSELDORF , DE) observed 2320 UTC 01 August 2021
Temperature: 15.0°C (59°F)
Dewpoint: 15.0°C (59°F) [RH = 100%]
Pressure (altimeter): 29.88 inches Hg (1012.0 mb)
Winds: variable direction winds at 1 MPH (1 knots; 0.5 m/s)
Visibility: 6 or more miles (10+ km)
Ceiling: 3700 feet AGL
Clouds: few clouds at 2000 feet AGL
broken clouds at 3700 feet AGL
Weather: no significant weather observed at this time

METAR text: EDDL 012250Z VRB02KT 9999 FEW015 SCT045 16/15 Q1012 NOSIG
Conditions at: EDDL (DUESSELDORF , DE) observed 2250 UTC 01 August 2021
Temperature: 16.0°C (61°F)
Dewpoint: 15.0°C (59°F) [RH = 94%]
Pressure (altimeter): 29.88 inches Hg (1012.0 mb)
Winds: variable direction winds at 2 MPH (2 knots; 1.0 m/s)
Visibility: 6 or more miles (10+ km)
Ceiling: at least 12,000 feet AGL
Clouds: few clouds at 1500 feet AGL
scattered clouds at 4500 feet AGL
Weather: no significant weather observed at this time

METAR text: EDDL 012220Z 34003KT 310V030 9999 -SHRA SCT010 SCT030 16/15 Q1012 NOSIG
Conditions at: EDDL (DUESSELDORF , DE) observed 2220 UTC 01 August 2021
Temperature: 16.0°C (61°F)
Dewpoint: 15.0°C (59°F) [RH = 94%]
Pressure (altimeter): 29.88 inches Hg (1012.0 mb)
Winds: from the NNW (340 degrees) at 3 MPH (3 knots; 1.5 m/s)
Visibility: 6 or more miles (10+ km)
Ceiling: at least 12,000 feet AGL
Clouds: scattered clouds at 1000 feet AGL
scattered clouds at 3000 feet AGL
Weather: -SHRA  (light rain showers)

METAR text: EDDL 012150Z 28006KT 9999 -SHRA BKN013 16/14 Q1012 BECMG SCT013
Conditions at: EDDL (DUESSELDORF , DE) observed 2150 UTC 01 August 2021
Temperature: 16.0°C (61°F)
Dewpoint: 14.0°C (57°F) [RH = 88%]
Pressure (altimeter): 29.88 inches Hg (1012.0 mb)
Winds: from the W (280 degrees) at 7 MPH (6 knots; 3.1 m/s)
Visibility: 6 or more miles (10+ km)
Ceiling: 1300 feet AGL
Clouds: broken clouds at 1300 feet AGL
Weather: -SHRA  (light rain showers)

METAR text: EDDL 012120Z 27007KT 240V300 9999 BKN016 16/14 Q1012 TEMPO BKN012
Conditions at: EDDL (DUESSELDORF , DE) observed 2120 UTC 01 August 2021
Temperature: 16.0°C (61°F)
Dewpoint: 14.0°C (57°F) [RH = 88%]
Pressure (altimeter): 29.88 inches Hg (1012.0 mb)
Winds: from the W (270 degrees) at 8 MPH (7 knots; 3.6 m/s)
Visibility: 6 or more miles (10+ km)
Ceiling: 1600 feet AGL
Clouds: broken clouds at 1600 feet AGL
Weather: no significant weather observed at this time

METAR text: EDDL 012050Z 26006KT 9999 SCT020 16/14 Q1012 NOSIG
Conditions at: EDDL (DUESSELDORF , DE) observed 2050 UTC 01 August 2021
Temperature: 16.0°C (61°F)
Dewpoint: 14.0°C (57°F) [RH = 88%]
Pressure (altimeter): 29.88 inches Hg (1012.0 mb)
Winds: from the W (260 degrees) at 7 MPH (6 knots; 3.1 m/s)
Visibility: 6 or more miles (10+ km)
Ceiling: at least 12,000 feet AGL
Clouds: scattered clouds at 2000 feet AGL
Weather: no significant weather observed at this time

METAR text: EDDL 012020Z 28003KT 9999 SCT029 16/14 Q1012 NOSIG
Conditions at: EDDL (DUESSELDORF , DE) observed 2020 UTC 01 August 2021
Temperature: 16.0°C (61°F)
Dewpoint: 14.0°C (57°F) [RH = 88%]
Pressure (altimeter): 29.88 inches Hg (1012.0 mb)
Winds: from the W (280 degrees) at 3 MPH (3 knots; 1.5 m/s)
Visibility: 6 or more miles (10+ km)
Ceiling: at least 12,000 feet AGL
Clouds: scattered clouds at 2900 feet AGL
Weather: no significant weather observed at this time

METAR text: EDDL 011950Z 27004KT 240V310 9999 FEW020CB 17/14 Q1011 NOSIG
Conditions at: EDDL (DUESSELDORF , DE) observed 1950 UTC 01 August 2021
Temperature: 17.0°C (63°F)
Dewpoint: 14.0°C (57°F) [RH = 82%]
Pressure (altimeter): 29.85 inches Hg (1011.0 mb)
Winds: from the W (270 degrees) at 5 MPH (4 knots; 2.1 m/s)
Visibility: 6 or more miles (10+ km)
Ceiling: at least 12,000 feet AGL
Clouds: few clouds at 2000 feet AGL
Weather: no significant weather observed at this time

METAR text: EDDL 011920Z 27008KT 9999 VCSH FEW020CB 17/13 Q1011 NOSIG
Conditions at: EDDL (DUESSELDORF , DE) observed 1920 UTC 01 August 2021
Temperature: 17.0°C (63°F)
Dewpoint: 13.0°C (55°F) [RH = 77%]
Pressure (altimeter): 29.85 inches Hg (1011.0 mb)
Winds: from the W (270 degrees) at 9 MPH (8 knots; 4.1 m/s)
Visibility: 6 or more miles (10+ km)
Ceiling: at least 12,000 feet AGL
Clouds: few clouds at 2000 feet AGL
Weather: VCSH  (showers in vicinity)

METAR text: EDDL 011850Z 26010KT 9999 VCSH FEW020CB 17/13 Q1011 RESHRA NOSIG
Conditions at: EDDL (DUESSELDORF , DE) observed 1850 UTC 01 August 2021
Temperature: 17.0°C (63°F)
Dewpoint: 13.0°C (55°F) [RH = 77%]
Pressure (altimeter): 29.85 inches Hg (1011.0 mb)
Winds: from the W (260 degrees) at 12 MPH (10 knots; 5.1 m/s)
Visibility: 6 or more miles (10+ km)
Ceiling: at least 12,000 feet AGL
Clouds: few clouds at 2000 feet AGL
Weather: VCSH  (showers in vicinity)

METAR text: EDDL 011820Z 29006KT 260V320 9999 SHRA SCT020CB 17/15 Q1011 BECMG NSW
Conditions at: EDDL (DUESSELDORF , DE) observed 1820 UTC 01 August 2021
Temperature: 17.0°C (63°F)
Dewpoint: 15.0°C (59°F) [RH = 88%]
Pressure (altimeter): 29.85 inches Hg (1011.0 mb)
Winds: from the WNW (290 degrees) at 7 MPH (6 knots; 3.1 m/s)
Visibility: 6 or more miles (10+ km)
Ceiling: at least 12,000 feet AGL
Clouds: scattered clouds at 2000 feet AGL
Weather: SHRA  (rain showers)

METAR text: EDDL 011750Z 26008KT 9999 FEW020CB 18/14 Q1010 NOSIG
Conditions at: EDDL (DUESSELDORF , DE) observed 1750 UTC 01 August 2021
Temperature: 18.0°C (64°F)
Dewpoint: 14.0°C (57°F) [RH = 77%]
Pressure (altimeter): 29.82 inches Hg (1010.0 mb)
Winds: from the W (260 degrees) at 9 MPH (8 knots; 4.1 m/s)
Visibility: 6 or more miles (10+ km)
Ceiling: at least 12,000 feet AGL
Clouds: few clouds at 2000 feet AGL
Weather: no significant weather observed at this time

METAR text: EDDL 011720Z 27008KT 9999 FEW020TCU SCT028 19/13 Q1010 NOSIG
Conditions at: EDDL (DUESSELDORF , DE) observed 1720 UTC 01 August 2021
Temperature: 19.0°C (66°F)
Dewpoint: 13.0°C (55°F) [RH = 68%]
Pressure (altimeter): 29.82 inches Hg (1010.0 mb)
Winds: from the W (270 degrees) at 9 MPH (8 knots; 4.1 m/s)
Visibility: 6 or more miles (10+ km)
Ceiling: at least 12,000 feet AGL
Clouds: few clouds at 2000 feet AGL
scattered clouds at 2800 feet AGL
Weather: no significant weather observed at this time

METAR text: EDDL 011650Z 29007KT 250V340 9999 FEW020 19/13 Q1010 NOSIG
Conditions at: EDDL (DUESSELDORF , DE) observed 1650 UTC 01 August 2021
Temperature: 19.0°C (66°F)
Dewpoint: 13.0°C (55°F) [RH = 68%]
Pressure (altimeter): 29.82 inches Hg (1010.0 mb)
Winds: from the WNW (290 degrees) at 8 MPH (7 knots; 3.6 m/s)
Visibility: 6 or more miles (10+ km)
Ceiling: at least 12,000 feet AGL
Clouds: few clouds at 2000 feet AGL
Weather: no significant weather observed at this time

METAR text: EDDL 011620Z 32009KT 9999 VCSH FEW020CB 18/14 Q1010 NOSIG
Conditions at: EDDL (DUESSELDORF , DE) observed 1620 UTC 01 August 2021
Temperature: 18.0°C (64°F)
Dewpoint: 14.0°C (57°F) [RH = 77%]
Pressure (altimeter): 29.82 inches Hg (1010.0 mb)
Winds: from the NW (320 degrees) at 10 MPH (9 knots; 4.6 m/s)
Visibility: 6 or more miles (10+ km)
Ceiling: at least 12,000 feet AGL
Clouds: few clouds at 2000 feet AGL
Weather: VCSH  (showers in vicinity)

METAR text: EDDL 011550Z 29010KT 260V340 9999 FEW020CB 20/14 Q1010 NOSIG
Conditions at: EDDL (DUESSELDORF , DE) observed 1550 UTC 01 August 2021
Temperature: 20.0°C (68°F)
Dewpoint: 14.0°C (57°F) [RH = 68%]
Pressure (altimeter): 29.82 inches Hg (1010.0 mb)
Winds: from the WNW (290 degrees) at 12 MPH (10 knots; 5.1 m/s)
Visibility: 6 or more miles (10+ km)
Ceiling: at least 12,000 feet AGL
Clouds: few clouds at 2000 feet AGL
Weather: no significant weather observed at this time

METAR text: EDDL 011520Z 26009KT 9999 -SHRA FEW018 FEW028CB 19/15 Q1010 NOSIG
Conditions at: EDDL (DUESSELDORF , DE) observed 1520 UTC 01 August 2021
Temperature: 19.0°C (66°F)
Dewpoint: 15.0°C (59°F) [RH = 78%]
Pressure (altimeter): 29.82 inches Hg (1010.0 mb)
Winds: from the W (260 degrees) at 10 MPH (9 knots; 4.6 m/s)
Visibility: 6 or more miles (10+ km)
Ceiling: at least 12,000 feet AGL
Clouds: few clouds at 1800 feet AGL
few clouds at 2800 feet AGL
Weather: -SHRA  (light rain showers)

METAR text: EDDL 011450Z 30010KT 240V350 9999 VCSH FEW018 FEW028CB 19/15 Q1009 NOSIG
Conditions at: EDDL (DUESSELDORF , DE) observed 1450 UTC 01 August 2021
Temperature: 19.0°C (66°F)
Dewpoint: 15.0°C (59°F) [RH = 78%]
Pressure (altimeter): 29.79 inches Hg (1009.0 mb)
Winds: from the WNW (300 degrees) at 12 MPH (10 knots; 5.1 m/s)
Visibility: 6 or more miles (10+ km)
Ceiling: at least 12,000 feet AGL
Clouds: few clouds at 1800 feet AGL
few clouds at 2800 feet AGL
Weather: VCSH  (showers in vicinity)

METAR text: EDDL 011420Z 24010KT 210V270 9999 -SHRA FEW024 SCT030CB 20/13 Q1009 TEMPO SHRA
Conditions at: EDDL (DUESSELDORF , DE) observed 1420 UTC 01 August 2021
Temperature: 20.0°C (68°F)
Dewpoint: 13.0°C (55°F) [RH = 64%]
Pressure (altimeter): 29.79 inches Hg (1009.0 mb)
Winds: from the WSW (240 degrees) at 12 MPH (10 knots; 5.1 m/s)
Visibility: 6 or more miles (10+ km)
Ceiling: at least 12,000 feet AGL
Clouds: few clouds at 2400 feet AGL
scattered clouds at 3000 feet AGL
Weather: -SHRA  (light rain showers)

METAR text: EDDL 011350Z 24009KT 220V280 9999 FEW024 SCT030CB 20/13 Q1009 TEMPO SHRA
Conditions at: EDDL (DUESSELDORF , DE) observed 1350 UTC 01 August 2021
Temperature: 20.0°C (68°F)
Dewpoint: 13.0°C (55°F) [RH = 64%]
Pressure (altimeter): 29.79 inches Hg (1009.0 mb)
Winds: from the WSW (240 degrees) at 10 MPH (9 knots; 4.6 m/s)
Visibility: 6 or more miles (10+ km)
Ceiling: at least 12,000 feet AGL
Clouds: few clouds at 2400 feet AGL
scattered clouds at 3000 feet AGL
Weather: no significant weather observed at this time

METAR text: EDDL 011320Z 25008KT 220V300 9999 FEW024 SCT030CB 21/14 Q1009 TEMPO SHRA
Conditions at: EDDL (DUESSELDORF , DE) observed 1320 UTC 01 August 2021
Temperature: 21.0°C (70°F)
Dewpoint: 14.0°C (57°F) [RH = 64%]
Pressure (altimeter): 29.79 inches Hg (1009.0 mb)
Winds: from the WSW (250 degrees) at 9 MPH (8 knots; 4.1 m/s)
Visibility: 6 or more miles (10+ km)
Ceiling: at least 12,000 feet AGL
Clouds: few clouds at 2400 feet AGL
scattered clouds at 3000 feet AGL
Weather: no significant weather observed at this time

METAR text: EDDL 011250Z 26005KT 210V320 9999 FEW024 20/13 Q1009 TEMPO SHRA
Conditions at: EDDL (DUESSELDORF , DE) observed 1250 UTC 01 August 2021
Temperature: 20.0°C (68°F)
Dewpoint: 13.0°C (55°F) [RH = 64%]
Pressure (altimeter): 29.79 inches Hg (1009.0 mb)
Winds: from the W (260 degrees) at 6 MPH (5 knots; 2.6 m/s)
Visibility: 6 or more miles (10+ km)
Ceiling: at least 12,000 feet AGL
Clouds: few clouds at 2400 feet AGL
Weather: no significant weather observed at this time

METAR text: EDDL 011220Z 27007KT 220V320 9999 FEW024TCU 20/14 Q1010 NOSIG
Conditions at: EDDL (DUESSELDORF , DE) observed 1220 UTC 01 August 2021
Temperature: 20.0°C (68°F)
Dewpoint: 14.0°C (57°F) [RH = 68%]
Pressure (altimeter): 29.82 inches Hg (1010.0 mb)
Winds: from the W (270 degrees) at 8 MPH (7 knots; 3.6 m/s)
Visibility: 6 or more miles (10+ km)
Ceiling: at least 12,000 feet AGL
Clouds: few clouds at 2400 feet AGL
Weather: no significant weather observed at this time

METAR text: EDDL 011150Z 26011KT 9999 FEW022 SCT030 19/13 Q1010 NOSIG
Conditions at: EDDL (DUESSELDORF , DE) observed 1150 UTC 01 August 2021
Temperature: 19.0°C (66°F)
Dewpoint: 13.0°C (55°F) [RH = 68%]
Pressure (altimeter): 29.82 inches Hg (1010.0 mb)
Winds: from the W (260 degrees) at 13 MPH (11 knots; 5.7 m/s)
Visibility: 6 or more miles (10+ km)
Ceiling: at least 12,000 feet AGL
Clouds: few clouds at 2200 feet AGL
scattered clouds at 3000 feet AGL
Weather: no significant weather observed at this time

METAR text: EDDL 011120Z 24009KT 9999 FEW022 BKN030 19/13 Q1010 NOSIG
Conditions at: EDDL (DUESSELDORF , DE) observed 1120 UTC 01 August 2021
Temperature: 19.0°C (66°F)
Dewpoint: 13.0°C (55°F) [RH = 68%]
Pressure (altimeter): 29.82 inches Hg (1010.0 mb)
Winds: from the WSW (240 degrees) at 10 MPH (9 knots; 4.6 m/s)
Visibility: 6 or more miles (10+ km)
Ceiling: 3000 feet AGL
Clouds: few clouds at 2200 feet AGL
broken clouds at 3000 feet AGL
Weather: no significant weather observed at this time

METAR text: EDDL 011050Z 24010KT 200V260 9999 FEW020 BKN028 18/13 Q1010 NOSIG
Conditions at: EDDL (DUESSELDORF , DE) observed 1050 UTC 01 August 2021
Temperature: 18.0°C (64°F)
Dewpoint: 13.0°C (55°F) [RH = 73%]
Pressure (altimeter): 29.82 inches Hg (1010.0 mb)
Winds: from the WSW (240 degrees) at 12 MPH (10 knots; 5.1 m/s)
Visibility: 6 or more miles (10+ km)
Ceiling: 2800 feet AGL
Clouds: few clouds at 2000 feet AGL
broken clouds at 2800 feet AGL
Weather: no significant weather observed at this time

Forecast for: EDDL (DUESSELDORF , DE)
Text: TAF EDDL 021700Z 0218/0324 VRB03KT 9999 SCT040
Forecast period: 1800 UTC 02 August 2021 to 0000 UTC 04 August 2021
Forecast type: FROM: standard forecast or significant change
Winds: variable direction winds at 3 MPH (3 knots; 1.5 m/s)
Visibility: 6 or more miles (10+ km)
Ceiling: at least 12,000 feet AGL
Clouds: scattered clouds at 4000 feet AGL
Weather: no significant weather forecast for this period
Text: TEMPO 0311/0315 SHRA BKN020CB
Forecast period: 1100 to 1500 UTC 03 August 2021
Forecast type: TEMPORARY: The following changes expected for less than half the time period
Visibility: missing
Ceiling: 2000 feet AGL
Clouds: broken clouds at 2000 feet AGL
Weather: SHRA  (rain showers)